Bay Head, New Jersey
Current Conditions -  °F | °C
As of 12:15 PM on Thursday 18 Dec 2014 (Local Time) from KBLM Reporting Station
Broken Clouds Broken Clouds  
Wind Chill: 33°   Ceiling: 4100
Heat Index: 41°   Visibility: 10mi
Dew Point: 21°   Wind: 15mph
Humidity: 45%   Direction: 290°WNW
Pressure: 29.99"   Gusts: 21mph
Location:  40.0839°N, 74.0496°W
Report Text: KBLM 181715Z AUTO 29013G18KT 10SM BKN041 05/M06 A2999 RMK AO1
Loading
Personal Weather Stations






























Interactive Weather Map New forecast layout! Learn more

10-Day Weather Forecast

Advertisements
Track Severe Weather on mobile